Wetterdaten: Woche 19.03.12 - 25.03.12 (KW12)
Datum Zeit Temp. Innen Temp. Aussen UV X Diff Temp. Feuchte Inne Feuchte Auss Sonnenschein Luftdruck Regen ab 0,1 Wind Sonnenschein T Regendauer Windben
19.03.2012 00:00 16,0 C 5,2 C 0,0 UV-I 0,0 C 52 % 92 % 0 % 1023,6 hPa 0,0 l/m 2,1 km/h (1 Bft) 0,00 h 0,00 h 3,2 km/h (1 Bft)
19.03.2012 01:00 16,0 C 5,6 C 0,0 UV-I 0,0 C 52 % 91 % 0 % 1024,4 hPa 0,0 l/m 2,5 km/h (1 Bft) 0,00 h 0,00 h 4,3 km/h (1 Bft)
19.03.2012 02:00 16,0 C 5,4 C 0,0 UV-I 0,0 C 52 % 91 % 0 % 1025,0 hPa 0,0 l/m 0,5 km/h (0 Bft) 0,00 h 0,00 h 0,5 km/h (0 Bft)
19.03.2012 03:00 15,9 C 4,9 C 0,0 UV-I 0,0 C 52 % 91 % 0 % 1025,4 hPa 0,0 l/m 0,0 km/h (0 Bft) 0,00 h 0,00 h 0,1 km/h (0 Bft)
19.03.2012 04:00 15,8 C 5,0 C 0,0 UV-I 0,0 C 52 % 92 % 0 % 1026,1 hPa 0,0 l/m 0,2 km/h (0 Bft) 0,00 h 0,00 h 0,5 km/h (0 Bft)
19.03.2012 05:00 15,8 C 4,7 C 0,0 UV-I 0,0 C 52 % 92 % 0 % 1026,8 hPa 0,0 l/m 0,2 km/h (0 Bft) 0,00 h 0,00 h 0,1 km/h (0 Bft)
19.03.2012 06:00 15,6 C 4,0 C 0,0 UV-I 0,0 C 52 % 92 % 0 % 1027,5 hPa 0,0 l/m 0,0 km/h (0 Bft) 0,00 h 0,00 h 0,0 km/h (0 Bft)
19.03.2012 07:00 15,5 C 3,1 C 0,0 UV-I 0,4 C 52 % 93 % 10 % 1028,4 hPa 0,0 l/m 0,0 km/h (0 Bft) 0,13 h 0,00 h 0,0 km/h (0 Bft)
19.03.2012 08:00 15,4 C 4,6 C 0,0 UV-I 6,0 C 52 % 94 % 100 % 1029,4 hPa 0,0 l/m 3,7 km/h (1 Bft) 1,00 h 0,00 h 7,1 km/h (2 Bft)
19.03.2012 09:00 15,6 C 6,4 C 0,5 UV-I 6,2 C 53 % 92 % 100 % 1030,6 hPa 0,0 l/m 6,0 km/h (2 Bft) 1,00 h 0,00 h 8,2 km/h (2 Bft)
19.03.2012 10:00 15,8 C 7,5 C 1,0 UV-I 3,9 C 53 % 81 % 89 % 1031,4 hPa 0,0 l/m 6,9 km/h (2 Bft) 0,70 h 0,00 h 10,7 km/h (2 Bft)
19.03.2012 11:00 16,1 C 8,7 C 3,0 UV-I 6,4 C 52 % 69 % 100 % 1032,0 hPa 0,0 l/m 9,3 km/h (2 Bft) 1,00 h 0,00 h 11,9 km/h (2 Bft)
19.03.2012 12:00 16,8 C 9,9 C 4,0 UV-I 7,0 C 50 % 62 % 100 % 1032,6 hPa 0,0 l/m 8,0 km/h (2 Bft) 1,00 h 0,00 h 9,2 km/h (2 Bft)
19.03.2012 13:00 18,6 C 10,9 C 4,3 UV-I 6,7 C 46 % 56 % 100 % 1035,9 hPa 0,0 l/m 8,2 km/h (2 Bft) 1,00 h 0,00 h 10,6 km/h (2 Bft)
19.03.2012 14:00 20,4 C 11,6 C 3,9 UV-I 6,2 C 42 % 53 % 100 % 1035,4 hPa 0,0 l/m 9,8 km/h (2 Bft) 1,00 h 0,00 h 13,7 km/h (3 Bft)
19.03.2012 15:00 21,4 C 11,7 C 2,0 UV-I 4,0 C 40 % 52 % 73 % 1035,6 hPa 0,0 l/m 7,3 km/h (2 Bft) 0,63 h 0,00 h 8,9 km/h (2 Bft)
19.03.2012 16:00 20,7 C 11,5 C 0,5 UV-I 2,3 C 40 % 54 % 64 % 1034,3 hPa 0,0 l/m 4,8 km/h (1 Bft) 0,37 h 0,00 h 6,0 km/h (2 Bft)
19.03.2012 17:00 20,0 C 11,1 C 0,0 UV-I 1,1 C 41 % 56 % 30 % 1033,7 hPa 0,0 l/m 3,0 km/h (1 Bft) 0,50 h 0,00 h 4,0 km/h (1 Bft)
19.03.2012 18:00 19,1 C 10,3 C 0,0 UV-I 0,1 C 42 % 58 % 4 % 1033,3 hPa 0,0 l/m 0,8 km/h (0 Bft) 0,07 h 0,00 h 1,4 km/h (1 Bft)
19.03.2012 19:00 17,9 C 8,1 C 0,0 UV-I 0,0 C 44 % 64 % 0 % 1033,5 hPa 0,0 l/m 0,0 km/h (0 Bft) 0,00 h 0,00 h 0,0 km/h (0 Bft)
19.03.2012 20:00 17,1 C 6,3 C 0,0 UV-I 0,0 C 45 % 70 % 0 % 1034,0 hPa 0,0 l/m 0,0 km/h (0 Bft) 0,00 h 0,00 h 0,0 km/h (0 Bft)
19.03.2012 21:00 16,7 C 5,1 C 0,0 UV-I 0,0 C 46 % 75 % 0 % 1034,5 hPa 0,0 l/m 0,0 km/h (0 Bft) 0,00 h 0,00 h 0,0 km/h (0 Bft)
19.03.2012 22:00 16,4 C 4,1 C 0,0 UV-I 0,0 C 47 % 79 % 0 % 1035,0 hPa 0,0 l/m 0,0 km/h (0 Bft) 0,00 h 0,00 h 0,0 km/h (0 Bft)
19.03.2012 23:00 16,1 C 3,2 C 0,0 UV-I 0,0 C 47 % 82 % 0 % 1035,5 hPa 0,0 l/m 0,0 km/h (0 Bft) 0,00 h 0,00 h 0,0 km/h (0 Bft)
20.03.2012 00:00 15,9 C 2,8 C 0,0 UV-I 0,0 C 47 % 85 % 0 % 1035,4 hPa 0,0 l/m 0,0 km/h (0 Bft) 0,00 h 0,00 h 0,0 km/h (0 Bft)
20.03.2012 01:00 15,8 C 2,2 C 0,0 UV-I 0,0 C 47 % 86 % 0 % 1035,4 hPa 0,0 l/m 0,0 km/h (0 Bft) 0,00 h 0,00 h 0,0 km/h (0 Bft)
20.03.2012 02:00 15,6 C 1,7 C 0,0 UV-I 0,0 C 47 % 88 % 0 % 1035,1 hPa 0,0 l/m 0,0 km/h (0 Bft) 0,00 h 0,00 h 0,0 km/h (0 Bft)
20.03.2012 03:00 15,5 C 1,3 C 0,0 UV-I 0,0 C 47 % 89 % 0 % 1035,0 hPa 0,0 l/m 0,0 km/h (0 Bft) 0,00 h 0,00 h 0,0 km/h (0 Bft)
20.03.2012 04:00 15,4 C 1,4 C 0,0 UV-I 0,0 C 47 % 90 % 0 % 1034,9 hPa 0,0 l/m 0,0 km/h (0 Bft) 0,00 h 0,00 h 0,0 km/h (0 Bft)
20.03.2012 05:00 15,2 C 1,5 C 0,0 UV-I 0,0 C 47 % 91 % 0 % 1035,1 hPa 0,0 l/m 0,0 km/h (0 Bft) 0,00 h 0,00 h 0,0 km/h (0 Bft)
20.03.2012 06:00 15,2 C 1,7 C 0,0 UV-I 0,0 C 47 % 91 % 0 % 1035,2 hPa 0,0 l/m 0,0 km/h (0 Bft) 0,00 h 0,00 h 0,0 km/h (0 Bft)
20.03.2012 07:00 15,1 C 1,9 C 0,0 UV-I 0,6 C 47 % 92 % 16 % 1035,6 hPa 0,0 l/m 0,1 km/h (0 Bft) 0,17 h 0,00 h 0,3 km/h (0 Bft)
20.03.2012 08:00 15,2 C 4,3 C 0,0 UV-I 6,6 C 47 % 91 % 100 % 1035,7 hPa 0,0 l/m 1,6 km/h (1 Bft) 1,00 h 0,00 h 2,9 km/h (1 Bft)
20.03.2012 09:00 15,2 C 7,4 C 0,6 UV-I 7,7 C 47 % 83 % 100 % 1036,1 hPa 0,0 l/m 3,7 km/h (1 Bft) 1,00 h 0,00 h 5,9 km/h (2 Bft)
20.03.2012 10:00 15,4 C 10,1 C 2,2 UV-I 7,8 C 46 % 70 % 100 % 1036,1 hPa 0,0 l/m 4,5 km/h (1 Bft) 1,00 h 0,00 h 7,4 km/h (2 Bft)
20.03.2012 11:00 15,7 C 12,0 C 3,0 UV-I 7,0 C 45 % 61 % 100 % 1035,8 hPa 0,0 l/m 6,5 km/h (2 Bft) 1,00 h 0,00 h 10,2 km/h (2 Bft)
20.03.2012 12:00 16,5 C 13,0 C 2,5 UV-I 5,0 C 45 % 59 % 99 % 1036,2 hPa 0,0 l/m 6,5 km/h (2 Bft) 1,00 h 0,00 h 7,9 km/h (2 Bft)
20.03.2012 13:00 18,1 C 14,0 C 3,0 UV-I 6,1 C 42 % 56 % 100 % 1038,4 hPa 0,0 l/m 7,0 km/h (2 Bft) 1,00 h 0,00 h 10,5 km/h (2 Bft)
20.03.2012 14:00 19,8 C 15,0 C 3,0 UV-I 6,1 C 38 % 52 % 100 % 1037,9 hPa 0,0 l/m 6,5 km/h (2 Bft) 1,00 h 0,00 h 10,5 km/h (2 Bft)
20.03.2012 15:00 21,0 C 15,4 C 2,1 UV-I 5,4 C 36 % 49 % 100 % 1038,2 hPa 0,0 l/m 6,2 km/h (2 Bft) 1,00 h 0,00 h 8,5 km/h (2 Bft)
20.03.2012 16:00 20,7 C 15,1 C 0,7 UV-I 3,1 C 37 % 51 % 88 % 1036,7 hPa 0,0 l/m 4,4 km/h (1 Bft) 0,80 h 0,00 h 5,6 km/h (1 Bft)
20.03.2012 17:00 20,0 C 14,2 C 0,1 UV-I 0,5 C 38 % 54 % 15 % 1035,9 hPa 0,0 l/m 2,1 km/h (1 Bft) 0,00 h 0,00 h 2,4 km/h (1 Bft)
20.03.2012 18:00 19,1 C 13,2 C 0,0 UV-I 0,0 C 40 % 57 % 0 % 1035,5 hPa 0,0 l/m 0,5 km/h (0 Bft) 0,00 h 0,00 h 1,3 km/h (1 Bft)
20.03.2012 19:00 18,3 C 11,9 C 0,0 UV-I 0,0 C 42 % 62 % 0 % 1035,8 hPa 0,0 l/m 0,1 km/h (0 Bft) 0,00 h 0,00 h 0,0 km/h (0 Bft)
20.03.2012 20:00 17,6 C 10,0 C 0,0 UV-I 0,0 C 44 % 67 % 0 % 1035,9 hPa 0,0 l/m 0,1 km/h (0 Bft) 0,00 h 0,00 h 0,0 km/h (0 Bft)
20.03.2012 21:00 17,1 C 8,0 C 0,0 UV-I 0,0 C 45 % 73 % 0 % 1036,1 hPa 0,0 l/m 0,0 km/h (0 Bft) 0,00 h 0,00 h 0,0 km/h (0 Bft)
20.03.2012 22:00 16,8 C 6,8 C 0,0 UV-I 0,0 C 46 % 78 % 0 % 1036,3 hPa 0,0 l/m 0,0 km/h (0 Bft) 0,00 h 0,00 h 0,0 km/h (0 Bft)
20.03.2012 23:00 16,6 C 6,6 C 0,0 UV-I 0,0 C 47 % 82 % 0 % 1036,3 hPa 0,0 l/m 0,0 km/h (0 Bft) 0,00 h 0,00 h 0,0 km/h (0 Bft)
21.03.2012 00:00 16,5 C 5,9 C 0,0 UV-I 0,0 C 47 % 83 % 0 % 1036,5 hPa 0,0 l/m 0,0 km/h (0 Bft) 0,00 h 0,00 h 0,0 km/h (0 Bft)
21.03.2012 01:00 16,3 C 5,1 C 0,0 UV-I 0,0 C 48 % 86 % 0 % 1036,1 hPa 0,0 l/m 0,0 km/h (0 Bft) 0,00 h 0,00 h 0,0 km/h (0 Bft)
21.03.2012 02:00 16,2 C 4,5 C 0,0 UV-I 0,0 C 48 % 87 % 0 % 1036,0 hPa 0,0 l/m 0,0 km/h (0 Bft) 0,00 h 0,00 h 0,0 km/h (0 Bft)
21.03.2012 03:00 16,0 C 4,0 C 0,0 UV-I 0,0 C 48 % 89 % 0 % 1036,2 hPa 0,0 l/m 0,0 km/h (0 Bft) 0,00 h 0,00 h 0,0 km/h (0 Bft)
21.03.2012 04:00 16,0 C 3,6 C 0,0 UV-I 0,0 C 48 % 90 % 0 % 1036,1 hPa 0,0 l/m 0,0 km/h (0 Bft) 0,00 h 0,00 h 0,0 km/h (0 Bft)
21.03.2012 05:00 15,8 C 3,2 C 0,0 UV-I 0,0 C 48 % 91 % 0 % 1036,1 hPa 0,0 l/m 0,0 km/h (0 Bft) 0,00 h 0,00 h 0,0 km/h (0 Bft)
21.03.2012 06:00 15,7 C 2,7 C 0,0 UV-I 0,0 C 48 % 92 % 0 % 1036,3 hPa 0,0 l/m 0,0 km/h (0 Bft) 0,00 h 0,00 h 0,0 km/h (0 Bft)
21.03.2012 07:00 15,6 C 2,7 C 0,0 UV-I 0,4 C 48 % 93 % 12 % 1036,7 hPa 0,0 l/m 0,0 km/h (0 Bft) 0,13 h 0,00 h 0,0 km/h (0 Bft)
21.03.2012 08:00 15,6 C 4,6 C 0,0 UV-I 5,1 C 49 % 94 % 99 % 1037,2 hPa 0,0 l/m 0,5 km/h (0 Bft) 1,00 h 0,00 h 1,5 km/h (1 Bft)
21.03.2012 09:00 15,8 C 7,8 C 0,6 UV-I 8,0 C 49 % 92 % 100 % 1037,7 hPa 0,0 l/m 0,9 km/h (0 Bft) 1,00 h 0,00 h 2,0 km/h (1 Bft)
21.03.2012 10:00 16,1 C 10,7 C 1,8 UV-I 7,9 C 50 % 81 % 100 % 1037,9 hPa 0,0 l/m 2,5 km/h (1 Bft) 1,00 h 0,00 h 4,1 km/h (1 Bft)
21.03.2012 11:00 16,5 C 13,1 C 2,4 UV-I 7,3 C 51 % 69 % 100 % 1037,9 hPa 0,0 l/m 3,4 km/h (1 Bft) 1,00 h 0,00 h 4,6 km/h (1 Bft)
21.03.2012 12:00 17,4 C 14,9 C 3,1 UV-I 6,9 C 51 % 61 % 100 % 1038,1 hPa 0,0 l/m 4,2 km/h (1 Bft) 1,00 h 0,00 h 6,0 km/h (2 Bft)
21.03.2012 13:00 19,0 C 16,1 C 3,3 UV-I 6,6 C 48 % 53 % 100 % 1040,1 hPa 0,0 l/m 5,1 km/h (1 Bft) 1,00 h 0,00 h 7,2 km/h (2 Bft)
21.03.2012 14:00 20,7 C 17,1 C 2,9 UV-I 5,8 C 44 % 50 % 100 % 1039,0 hPa 0,0 l/m 5,1 km/h (1 Bft) 1,00 h 0,00 h 6,8 km/h (2 Bft)
21.03.2012 15:00 21,7 C 17,5 C 2,1 UV-I 5,3 C 42 % 49 % 100 % 1038,7 hPa 0,0 l/m 4,8 km/h (1 Bft) 1,00 h 0,00 h 7,5 km/h (2 Bft)
21.03.2012 16:00 22,0 C 17,8 C 0,9 UV-I 3,9 C 41 % 48 % 98 % 1037,4 hPa 0,0 l/m 4,2 km/h (1 Bft) 0,97 h 0,00 h 5,6 km/h (1 Bft)
21.03.2012 17:00 21,2 C 16,9 C 0,1 UV-I 1,9 C 42 % 52 % 53 % 1035,6 hPa 0,0 l/m 6,1 km/h (2 Bft) 0,60 h 0,00 h 7,9 km/h (2 Bft)
21.03.2012 18:00 20,4 C 15,1 C 0,0 UV-I 0,1 C 43 % 60 % 2 % 1034,7 hPa 0,0 l/m 5,5 km/h (1 Bft) 0,00 h 0,00 h 6,9 km/h (2 Bft)
21.03.2012 19:00 19,5 C 12,9 C 0,0 UV-I 0,0 C 45 % 66 % 0 % 1034,2 hPa 0,0 l/m 1,0 km/h (0 Bft) 0,00 h 0,00 h 1,1 km/h (0 Bft)
21.03.2012 20:00 18,8 C 11,0 C 0,0 UV-I 0,0 C 47 % 72 % 0 % 1034,5 hPa 0,0 l/m 0,2 km/h (0 Bft) 0,00 h 0,00 h 0,1 km/h (0 Bft)
21.03.2012 21:00 18,4 C 9,4 C 0,0 UV-I 0,0 C 48 % 76 % 0 % 1034,7 hPa 0,0 l/m 0,0 km/h (0 Bft) 0,00 h 0,00 h 0,0 km/h (0 Bft)
21.03.2012 22:00 18,0 C 8,6 C 0,0 UV-I 0,0 C 49 % 80 % 0 % 1034,8 hPa 0,0 l/m 0,0 km/h (0 Bft) 0,00 h 0,00 h 0,0 km/h (0 Bft)
21.03.2012 23:00 17,7 C 8,3 C 0,0 UV-I 0,0 C 49 % 80 % 0 % 1034,4 hPa 0,0 l/m 0,0 km/h (0 Bft) 0,00 h 0,00 h 0,0 km/h (0 Bft)
22.03.2012 00:00 17,5 C 7,0 C 0,0 UV-I 0,0 C 49 % 83 % 0 % 1034,3 hPa 0,0 l/m 0,0 km/h (0 Bft) 0,00 h 0,00 h 0,0 km/h (0 Bft)
22.03.2012 01:00 17,2 C 6,1 C 0,0 UV-I 0,0 C 50 % 86 % 0 % 1034,1 hPa 0,0 l/m 0,0 km/h (0 Bft) 0,00 h 0,00 h 0,0 km/h (0 Bft)
22.03.2012 02:00 17,0 C 5,3 C 0,0 UV-I 0,0 C 50 % 88 % 0 % 1033,7 hPa 0,0 l/m 0,0 km/h (0 Bft) 0,00 h 0,00 h 0,0 km/h (0 Bft)
22.03.2012 03:00 16,7 C 4,5 C 0,0 UV-I 0,0 C 50 % 89 % 0 % 1033,5 hPa 0,0 l/m 0,0 km/h (0 Bft) 0,00 h 0,00 h 0,0 km/h (0 Bft)
22.03.2012 04:00 16,5 C 4,2 C 0,0 UV-I 0,0 C 50 % 91 % 0 % 1033,2 hPa 0,0 l/m 0,0 km/h (0 Bft) 0,00 h 0,00 h 0,0 km/h (0 Bft)
22.03.2012 05:00 16,4 C 3,7 C 0,0 UV-I 0,0 C 50 % 91 % 0 % 1033,0 hPa 0,0 l/m 0,0 km/h (0 Bft) 0,00 h 0,00 h 0,0 km/h (0 Bft)
22.03.2012 06:00 16,3 C 3,2 C 0,0 UV-I 0,0 C 50 % 92 % 0 % 1033,0 hPa 0,0 l/m 0,0 km/h (0 Bft) 0,00 h 0,00 h 0,0 km/h (0 Bft)
22.03.2012 07:00 16,2 C 3,1 C 0,0 UV-I 0,7 C 50 % 93 % 18 % 1033,1 hPa 0,0 l/m 0,0 km/h (0 Bft) 0,20 h 0,00 h 0,0 km/h (0 Bft)
22.03.2012 08:00 16,2 C 5,4 C 0,0 UV-I 7,1 C 50 % 95 % 100 % 1033,2 hPa 0,0 l/m 0,0 km/h (0 Bft) 0,83 h 0,00 h 0,0 km/h (0 Bft)
22.03.2012 09:00 16,5 C 10,8 C 1,1 UV-I 9,3 C 52 % 91 % 100 % 1033,3 hPa 0,0 l/m 0,9 km/h (0 Bft) 0,67 h 0,00 h 2,2 km/h (1 Bft)
22.03.2012 10:00 16,8 C 14,1 C 2,7 UV-I 8,6 C 53 % 78 % 100 % 1033,2 hPa 0,0 l/m 2,3 km/h (1 Bft) 1,00 h 0,00 h 5,3 km/h (1 Bft)
22.03.2012 11:00 17,2 C 16,6 C 3,5 UV-I 7,5 C 54 % 66 % 100 % 1032,9 hPa 0,0 l/m 3,9 km/h (1 Bft) 1,00 h 0,00 h 6,3 km/h (2 Bft)
22.03.2012 12:00 18,2 C 18,8 C 4,1 UV-I 6,8 C 53 % 57 % 100 % 1032,7 hPa 0,0 l/m 5,1 km/h (1 Bft) 1,00 h 0,00 h 6,9 km/h (2 Bft)
22.03.2012 13:00 19,9 C 20,2 C 3,8 UV-I 6,5 C 50 % 52 % 100 % 1034,6 hPa 0,0 l/m 5,8 km/h (2 Bft) 1,00 h 0,00 h 8,0 km/h (2 Bft)
22.03.2012 14:00 21,5 C 21,1 C 3,4 UV-I 5,8 C 47 % 49 % 100 % 1033,5 hPa 0,0 l/m 6,4 km/h (2 Bft) 1,00 h 0,00 h 8,5 km/h (2 Bft)
22.03.2012 15:00 22,7 C 21,3 C 2,6 UV-I 5,0 C 45 % 48 % 100 % 1033,3 hPa 0,0 l/m 7,8 km/h (2 Bft) 1,00 h 0,00 h 9,6 km/h (2 Bft)
22.03.2012 16:00 22,9 C 21,3 C 1,1 UV-I 3,7 C 44 % 48 % 99 % 1032,0 hPa 0,0 l/m 5,7 km/h (1 Bft) 1,00 h 0,00 h 7,3 km/h (2 Bft)
22.03.2012 17:00 22,0 C 20,3 C 0,2 UV-I 1,7 C 46 % 52 % 49 % 1030,6 hPa 0,0 l/m 5,6 km/h (1 Bft) 0,33 h 0,00 h 6,3 km/h (2 Bft)
22.03.2012 18:00 21,3 C 18,4 C 0,0 UV-I 0,1 C 47 % 58 % 2 % 1029,8 hPa 0,0 l/m 3,8 km/h (1 Bft) 0,00 h 0,00 h 5,1 km/h (1 Bft)
22.03.2012 19:00 20,5 C 16,6 C 0,0 UV-I 0,0 C 50 % 61 % 0 % 1029,6 hPa 0,0 l/m 3,5 km/h (1 Bft) 0,00 h 0,00 h 5,3 km/h (1 Bft)
22.03.2012 20:00 19,9 C 15,3 C 0,0 UV-I 0,0 C 52 % 65 % 0 % 1029,7 hPa 0,0 l/m 2,5 km/h (1 Bft) 0,00 h 0,00 h 4,1 km/h (1 Bft)
22.03.2012 21:00 19,5 C 14,4 C 0,0 UV-I 0,0 C 53 % 70 % 0 % 1029,8 hPa 0,0 l/m 2,7 km/h (1 Bft) 0,00 h 0,00 h 4,5 km/h (1 Bft)
22.03.2012 22:00 19,2 C 13,4 C 0,0 UV-I 0,0 C 54 % 73 % 0 % 1029,8 hPa 0,0 l/m 0,6 km/h (0 Bft) 0,00 h 0,00 h 1,0 km/h (0 Bft)
22.03.2012 23:00 18,9 C 11,9 C 0,0 UV-I 0,0 C 54 % 77 % 0 % 1029,7 hPa 0,0 l/m 0,0 km/h (0 Bft) 0,00 h 0,00 h 0,0 km/h (0 Bft)
23.03.2012 00:00 18,8 C 10,2 C 0,0 UV-I 0,0 C 53 % 80 % 0 % 1029,6 hPa 0,0 l/m 0,0 km/h (0 Bft) 0,00 h 0,00 h 0,0 km/h (0 Bft)
23.03.2012 01:00 18,5 C 9,1 C 0,0 UV-I 0,0 C 54 % 84 % 0 % 1029,2 hPa 0,0 l/m 0,0 km/h (0 Bft) 0,00 h 0,00 h 0,0 km/h (0 Bft)
23.03.2012 02:00 18,2 C 8,5 C 0,0 UV-I 0,0 C 54 % 87 % 0 % 1028,9 hPa 0,0 l/m 0,0 km/h (0 Bft) 0,00 h 0,00 h 0,0 km/h (0 Bft)
23.03.2012 03:00 18,0 C 7,4 C 0,0 UV-I 0,0 C 54 % 88 % 0 % 1028,6 hPa 0,0 l/m 0,0 km/h (0 Bft) 0,00 h 0,03 h 0,0 km/h (0 Bft)
23.03.2012 04:00 17,9 C 6,3 C 0,0 UV-I 0,0 C 53 % 89 % 0 % 1028,5 hPa 0,0 l/m 0,0 km/h (0 Bft) 0,00 h 0,03 h 0,0 km/h (0 Bft)
23.03.2012 05:00 17,7 C 5,6 C 0,0 UV-I 0,0 C 53 % 91 % 0 % 1028,2 hPa 0,0 l/m 0,0 km/h (0 Bft) 0,00 h 0,00 h 0,0 km/h (0 Bft)
23.03.2012 06:00 17,5 C 5,1 C 0,0 UV-I 0,0 C 53 % 91 % 0 % 1028,0 hPa 0,0 l/m 0,0 km/h (0 Bft) 0,00 h 0,00 h 0,0 km/h (0 Bft)
23.03.2012 07:00 17,2 C 5,1 C 0,0 UV-I 0,5 C 53 % 93 % 14 % 1028,3 hPa 0,0 l/m 0,0 km/h (0 Bft) 0,13 h 0,00 h 0,0 km/h (0 Bft)
23.03.2012 08:00 17,2 C 7,6 C 0,1 UV-I 6,1 C 54 % 95 % 100 % 1028,5 hPa 0,0 l/m 0,7 km/h (0 Bft) 1,00 h 0,00 h 1,5 km/h (1 Bft)
23.03.2012 09:00 17,4 C 11,7 C 1,0 UV-I 7,5 C 55 % 91 % 100 % 1028,7 hPa 0,0 l/m 2,0 km/h (1 Bft) 1,00 h 0,00 h 3,9 km/h (1 Bft)
23.03.2012 10:00 17,7 C 14,7 C 2,5 UV-I 6,7 C 55 % 81 % 100 % 1028,6 hPa 0,0 l/m 4,4 km/h (1 Bft) 1,00 h 0,00 h 7,0 km/h (2 Bft)
23.03.2012 11:00 18,1 C 16,7 C 3,2 UV-I 7,3 C 55 % 70 % 100 % 1028,7 hPa 0,0 l/m 3,6 km/h (1 Bft) 1,00 h 0,00 h 5,6 km/h (1 Bft)
23.03.2012 12:00 19,2 C 18,8 C 3,9 UV-I 7,0 C 54 % 62 % 100 % 1029,0 hPa 0,0 l/m 3,9 km/h (1 Bft) 1,00 h 0,00 h 6,3 km/h (2 Bft)
23.03.2012 13:00 20,7 C 20,1 C 4,0 UV-I 6,6 C 50 % 55 % 100 % 1031,0 hPa 0,0 l/m 4,7 km/h (1 Bft) 1,00 h 0,00 h 7,3 km/h (2 Bft)
23.03.2012 14:00 22,2 C 20,9 C 3,6 UV-I 6,5 C 47 % 51 % 100 % 1030,1 hPa 0,0 l/m 4,8 km/h (1 Bft) 1,00 h 0,00 h 7,0 km/h (2 Bft)
23.03.2012 15:00 23,3 C 21,1 C 2,6 UV-I 5,5 C 44 % 50 % 100 % 1030,3 hPa 0,0 l/m 6,1 km/h (2 Bft) 1,00 h 0,00 h 9,7 km/h (2 Bft)
23.03.2012 16:00 23,4 C 20,8 C 1,1 UV-I 3,8 C 44 % 51 % 96 % 1029,2 hPa 0,0 l/m 7,3 km/h (2 Bft) 1,00 h 0,00 h 8,9 km/h (2 Bft)
23.03.2012 17:00 22,6 C 20,3 C 0,3 UV-I 1,9 C 45 % 51 % 53 % 1027,9 hPa 0,0 l/m 6,5 km/h (2 Bft) 0,40 h 0,00 h 8,1 km/h (2 Bft)
23.03.2012 18:00 21,9 C 18,8 C 0,0 UV-I 0,1 C 47 % 54 % 4 % 1027,2 hPa 0,0 l/m 5,7 km/h (1 Bft) 0,00 h 0,00 h 7,3 km/h (2 Bft)
23.03.2012 19:00 21,1 C 16,3 C 0,0 UV-I 0,0 C 48 % 60 % 0 % 1027,2 hPa 0,0 l/m 0,9 km/h (0 Bft) 0,00 h 0,00 h 0,7 km/h (0 Bft)
23.03.2012 20:00 20,4 C 13,2 C 0,0 UV-I 0,0 C 49 % 69 % 0 % 1027,5 hPa 0,0 l/m 0,0 km/h (0 Bft) 0,00 h 0,00 h 0,0 km/h (0 Bft)
23.03.2012 21:00 19,9 C 11,3 C 0,0 UV-I 0,0 C 50 % 74 % 0 % 1027,7 hPa 0,0 l/m 0,0 km/h (0 Bft) 0,00 h 0,00 h 0,0 km/h (0 Bft)
23.03.2012 22:00 19,6 C 10,0 C 0,0 UV-I 0,0 C 50 % 78 % 0 % 1027,7 hPa 0,0 l/m 0,0 km/h (0 Bft) 0,00 h 0,00 h 0,0 km/h (0 Bft)
23.03.2012 23:00 19,2 C 8,9 C 0,0 UV-I 0,0 C 51 % 81 % 0 % 1027,7 hPa 0,0 l/m 0,0 km/h (0 Bft) 0,00 h 0,00 h 0,0 km/h (0 Bft)
24.03.2012 00:00 18,8 C 8,2 C 0,0 UV-I 0,0 C 51 % 84 % 0 % 1027,3 hPa 0,0 l/m 0,0 km/h (0 Bft) 0,00 h 0,00 h 0,0 km/h (0 Bft)
24.03.2012 01:00 18,6 C 7,6 C 0,0 UV-I 0,0 C 52 % 86 % 0 % 1027,1 hPa 0,0 l/m 0,0 km/h (0 Bft) 0,00 h 0,00 h 0,0 km/h (0 Bft)
24.03.2012 02:00 18,4 C 7,0 C 0,0 UV-I 0,0 C 52 % 87 % 0 % 1027,0 hPa 0,0 l/m 0,0 km/h (0 Bft) 0,00 h 0,00 h 0,0 km/h (0 Bft)
24.03.2012 03:00 18,2 C 6,5 C 0,0 UV-I 0,0 C 52 % 89 % 0 % 1026,9 hPa 0,0 l/m 0,0 km/h (0 Bft) 0,00 h 0,00 h 0,0 km/h (0 Bft)
24.03.2012 04:00 18,1 C 5,8 C 0,0 UV-I 0,0 C 52 % 90 % 0 % 1027,1 hPa 0,0 l/m 0,0 km/h (0 Bft) 0,00 h 0,00 h 0,0 km/h (0 Bft)
24.03.2012 05:00 17,9 C 5,5 C 0,0 UV-I 0,0 C 51 % 91 % 0 % 1027,3 hPa 0,0 l/m 0,0 km/h (0 Bft) 0,00 h 0,00 h 0,0 km/h (0 Bft)
24.03.2012 06:00 17,7 C 4,8 C 0,0 UV-I 0,0 C 51 % 91 % 0 % 1027,5 hPa 0,0 l/m 0,0 km/h (0 Bft) 0,00 h 0,00 h 0,0 km/h (0 Bft)
24.03.2012 07:00 17,5 C 5,0 C 0,0 UV-I 0,6 C 52 % 93 % 16 % 1027,8 hPa 0,0 l/m 0,0 km/h (0 Bft) 0,17 h 0,00 h 0,0 km/h (0 Bft)
24.03.2012 08:00 17,5 C 7,2 C 0,1 UV-I 7,4 C 52 % 94 % 100 % 1028,1 hPa 0,0 l/m 0,2 km/h (0 Bft) 1,00 h 0,03 h 0,5 km/h (0 Bft)
24.03.2012 09:00 17,6 C 11,1 C 1,0 UV-I 9,4 C 53 % 90 % 100 % 1028,6 hPa 0,0 l/m 0,9 km/h (0 Bft) 1,00 h 0,00 h 1,5 km/h (1 Bft)
24.03.2012 10:00 17,9 C 14,5 C 2,5 UV-I 9,2 C 54 % 78 % 100 % 1028,9 hPa 0,0 l/m 1,0 km/h (0 Bft) 1,00 h 0,00 h 1,5 km/h (1 Bft)
24.03.2012 11:00 18,3 C 16,5 C 3,1 UV-I 7,8 C 54 % 66 % 100 % 1029,1 hPa 0,0 l/m 5,5 km/h (1 Bft) 1,00 h 0,00 h 7,8 km/h (2 Bft)
24.03.2012 12:00 19,4 C 18,7 C 3,5 UV-I 7,4 C 52 % 58 % 100 % 1029,2 hPa 0,0 l/m 3,9 km/h (1 Bft) 1,00 h 0,00 h 4,7 km/h (1 Bft)
24.03.2012 13:00 20,8 C 19,4 C 3,1 UV-I 6,0 C 50 % 55 % 100 % 1031,0 hPa 0,0 l/m 8,1 km/h (2 Bft) 1,00 h 0,00 h 10,6 km/h (2 Bft)
24.03.2012 14:00 22,0 C 19,6 C 2,6 UV-I 5,0 C 47 % 53 % 100 % 1030,5 hPa 0,0 l/m 9,1 km/h (2 Bft) 1,00 h 0,00 h 13,5 km/h (3 Bft)
24.03.2012 15:00 22,7 C 19,5 C 2,0 UV-I 3,5 C 45 % 53 % 94 % 1030,4 hPa 0,0 l/m 11,7 km/h (2 Bft) 0,87 h 0,00 h 15,1 km/h (3 Bft)
24.03.2012 16:00 22,7 C 19,5 C 1,1 UV-I 2,7 C 45 % 55 % 76 % 1029,7 hPa 0,0 l/m 11,5 km/h (2 Bft) 0,30 h 0,00 h 13,8 km/h (3 Bft)
24.03.2012 17:00 22,2 C 19,0 C 0,3 UV-I 1,5 C 46 % 56 % 43 % 1029,0 hPa 0,0 l/m 13,0 km/h (3 Bft) 0,13 h 0,00 h 15,6 km/h (3 Bft)
24.03.2012 18:00 21,6 C 17,7 C 0,0 UV-I 0,1 C 47 % 59 % 2 % 1028,7 hPa 0,0 l/m 10,2 km/h (2 Bft) 0,00 h 0,00 h 11,4 km/h (2 Bft)
24.03.2012 19:00 20,8 C 16,3 C 0,0 UV-I 0,0 C 49 % 65 % 0 % 1028,6 hPa 0,0 l/m 7,3 km/h (2 Bft) 0,00 h 0,00 h 8,7 km/h (2 Bft)
24.03.2012 20:00 20,2 C 15,1 C 0,0 UV-I 0,0 C 50 % 72 % 0 % 1029,0 hPa 0,0 l/m 5,1 km/h (1 Bft) 0,00 h 0,00 h 6,1 km/h (2 Bft)
24.03.2012 21:00 19,9 C 13,9 C 0,0 UV-I 0,0 C 51 % 76 % 0 % 1029,3 hPa 0,0 l/m 3,7 km/h (1 Bft) 0,00 h 0,00 h 5,4 km/h (1 Bft)
24.03.2012 22:00 19,5 C 13,0 C 0,0 UV-I 0,0 C 52 % 79 % 0 % 1029,6 hPa 0,0 l/m 4,3 km/h (1 Bft) 0,00 h 0,00 h 5,0 km/h (1 Bft)
24.03.2012 23:00 19,2 C 12,1 C 0,0 UV-I 0,0 C 53 % 81 % 0 % 1029,9 hPa 0,0 l/m 3,7 km/h (1 Bft) 0,00 h 0,00 h 4,2 km/h (1 Bft)
25.03.2012 00:00 19,1 C 11,3 C 0,0 UV-I 0,0 C 54 % 82 % 0 % 1030,0 hPa 0,0 l/m 4,4 km/h (1 Bft) 0,00 h 0,00 h 6,3 km/h (2 Bft)
25.03.2012 01:00 18,9 C 10,7 C 0,0 UV-I 0,0 C 54 % 82 % 0 % 1030,4 hPa 0,0 l/m 4,1 km/h (1 Bft) 0,00 h 0,00 h 4,2 km/h (1 Bft)
25.03.2012 03:00 18,7 C 9,7 C 0,0 UV-I 0,0 C 54 % 83 % 0 % 1030,8 hPa 0,0 l/m 3,0 km/h (1 Bft) 0,00 h 0,00 h 4,6 km/h (1 Bft)
25.03.2012 04:00 18,6 C 8,7 C 0,0 UV-I 0,0 C 53 % 85 % 0 % 1030,8 hPa 0,0 l/m 0,8 km/h (0 Bft) 0,00 h 0,00 h 1,7 km/h (1 Bft)
25.03.2012 05:00 18,4 C 8,0 C 0,0 UV-I 0,0 C 53 % 86 % 0 % 1030,8 hPa 0,0 l/m 3,3 km/h (1 Bft) 0,00 h 0,00 h 4,6 km/h (1 Bft)
25.03.2012 06:00 18,2 C 7,3 C 0,0 UV-I 0,0 C 53 % 88 % 0 % 1031,0 hPa 0,0 l/m 3,9 km/h (1 Bft) 0,00 h 0,00 h 4,6 km/h (1 Bft)
25.03.2012 07:00 18,0 C 6,5 C 0,0 UV-I 0,0 C 53 % 89 % 0 % 1031,3 hPa 0,0 l/m 0,3 km/h (0 Bft) 0,00 h 0,00 h 1,1 km/h (1 Bft)
25.03.2012 08:00 17,7 C 6,5 C 0,0 UV-I 0,4 C 53 % 91 % 10 % 1031,9 hPa 0,0 l/m 1,5 km/h (1 Bft) 0,10 h 0,00 h 3,4 km/h (1 Bft)
25.03.2012 09:00 17,7 C 7,7 C 0,1 UV-I 4,7 C 53 % 92 % 99 % 1032,4 hPa 0,0 l/m 8,7 km/h (2 Bft) 1,00 h 0,00 h 11,6 km/h (2 Bft)
25.03.2012 10:00 17,8 C 8,6 C 0,9 UV-I 6,0 C 55 % 90 % 100 % 1033,2 hPa 0,0 l/m 10,5 km/h (2 Bft) 1,00 h 0,00 h 12,9 km/h (3 Bft)
25.03.2012 11:00 17,9 C 9,1 C 2,6 UV-I 6,7 C 54 % 89 % 100 % 1033,9 hPa 0,0 l/m 9,8 km/h (2 Bft) 1,00 h 0,00 h 13,2 km/h (3 Bft)
25.03.2012 12:00 18,1 C 11,3 C 3,3 UV-I 6,9 C 55 % 83 % 100 % 1034,2 hPa 0,0 l/m 9,1 km/h (2 Bft) 1,00 h 0,00 h 11,7 km/h (2 Bft)
25.03.2012 13:00 19,1 C 14,2 C 4,2 UV-I 6,6 C 53 % 73 % 100 % 1034,4 hPa 0,0 l/m 10,2 km/h (2 Bft) 1,00 h 0,00 h 14,1 km/h (3 Bft)
25.03.2012 14:00 20,9 C 16,3 C 4,3 UV-I 5,6 C 49 % 62 % 100 % 1036,9 hPa 0,0 l/m 12,6 km/h (3 Bft) 1,00 h 0,00 h 17,6 km/h (3 Bft)
25.03.2012 15:00 22,5 C 18,0 C 4,3 UV-I 5,5 C 45 % 49 % 100 % 1036,5 hPa 0,0 l/m 11,6 km/h (2 Bft) 1,00 h 0,00 h 14,2 km/h (3 Bft)
25.03.2012 16:00 23,8 C 18,6 C 4,0 UV-I 4,7 C 41 % 50 % 100 % 1037,3 hPa 0,0 l/m 13,9 km/h (3 Bft) 1,00 h 0,00 h 17,5 km/h (3 Bft)
25.03.2012 17:00 24,1 C 18,9 C 1,9 UV-I 3,9 C 41 % 47 % 99 % 1036,7 hPa 0,0 l/m 14,0 km/h (3 Bft) 1,00 h 0,00 h 18,6 km/h (3 Bft)
25.03.2012 18:00 23,0 C 18,4 C 0,4 UV-I 2,2 C 41 % 44 % 62 % 1035,2 hPa 0,0 l/m 15,6 km/h (3 Bft) 1,00 h 0,00 h 19,3 km/h (3 Bft)
25.03.2012 19:00 22,0 C 17,0 C 0,0 UV-I 0,4 C 42 % 45 % 13 % 1034,7 hPa 0,0 l/m 10,8 km/h (2 Bft) 0,23 h 0,00 h 11,6 km/h (2 Bft)
25.03.2012 20:00 21,0 C 14,8 C 0,0 UV-I 0,0 C 44 % 51 % 0 % 1034,6 hPa 0,0 l/m 4,0 km/h (1 Bft) 0,00 h 0,00 h 4,4 km/h (1 Bft)
25.03.2012 21:00 20,3 C 12,0 C 0,0 UV-I 0,0 C 45 % 60 % 0 % 1034,8 hPa 0,0 l/m 0,0 km/h (0 Bft) 0,00 h 0,00 h 0,0 km/h (0 Bft)
25.03.2012 22:00 19,8 C 10,5 C 0,0 UV-I 0,0 C 47 % 66 % 0 % 1035,2 hPa 0,0 l/m 0,9 km/h (0 Bft) 0,00 h 0,00 h 1,2 km/h (1 Bft)
25.03.2012 23:00 19,4 C 9,1 C 0,0 UV-I 0,0 C 47 % 70 % 0 % 1035,3 hPa 0,0 l/m 0,0 km/h (0 Bft) 0,00 h 0,00 h 0,0 km/h (0 Bft)
Min-Datum _ 20.03.12 20.03.12 19.03.12 19.03.12 20.03.12 25.03.12 19.03.12 19.03.12 - 19.03.12 - - 19.03.12
_ Min-Zeit 05:30 03:46 00:00 00:00 15:06 18:46 00:00 00:00 - 02:28 - - 00:02
Minimum _ 15,1 C 1,1 C 0,0 UV-I 0,0 C 36 % 41 % 0 % 1023,2 hPa - 0,0 km/h (0 Bft) - - 0,0 km/h (0 Bft)
Max-Datum _ 25.03.12 22.03.12 19.03.12 24.03.12 23.03.12 22.03.12 19.03.12 21.03.12 19.03.12 25.03.12 19.03.12 23.03.12 25.03.12
_ Max-Zeit 17:12 15:08 13:00 09:38 08:48 08:32 07:58 13:26 00:00 18:00 07:52 03:10 14:58
Maximum _ 24,3 C 21,7 C 4,5 UV-I 9,9 C 55 % 96 % 100 % 1040,9 hPa 0,0 l/m 17,7 km/h
W (3 Bft)
0,03 h 0,03 h 38,1 km/h
W (5 Bft)
Durchschnitt _ 18,5 C 10,6 C 0,9 UV-I 2,4 C 49 % 74 % 40 % 1032,4 hPa #0,0 l/m 3,1 km/h (1 Bft) #64:26 h #6 min. 4,3 km/h (1 Bft)
© 2012 W. Hausmann